createdAt,value
2016-11-25T00:00:29.901Z,1016.02
2016-11-25T00:01:44.813Z,1016.03
2016-11-25T00:02:59.817Z,1016.05
2016-11-25T00:04:16.118Z,1015.99
2016-11-25T00:05:31.485Z,1015.93
2016-11-25T00:06:47.636Z,1015.92
2016-11-25T00:08:02.976Z,1015.85
2016-11-25T00:09:16.408Z,1015.83
2016-11-25T00:10:29.466Z,1015.71
2016-11-25T00:11:44.591Z,1015.75
2016-11-25T00:13:00.689Z,1015.73
2016-11-25T00:14:17.104Z,1015.72
2016-11-25T00:15:32.230Z,1015.65
2016-11-25T00:16:47.240Z,1015.61
2016-11-25T00:18:02.458Z,1015.62
2016-11-25T00:19:18.508Z,1015.62
2016-11-25T00:20:30.585Z,1015.61
2016-11-25T00:21:43.671Z,1015.61
2016-11-25T00:22:58.808Z,1015.59
2016-11-25T00:24:14.443Z,1015.52
2016-11-25T00:25:29.481Z,1015.58
2016-11-25T00:26:44.539Z,1015.55
2016-11-25T00:28:00.722Z,1015.54
2016-11-25T00:29:14.995Z,1015.5
2016-11-25T00:30:31.309Z,1015.46
2016-11-25T00:31:43.248Z,1015.49
2016-11-25T00:32:56.192Z,1015.42
2016-11-25T00:34:11.123Z,1015.36
2016-11-25T00:35:23.039Z,1015.4
2016-11-25T00:36:39.522Z,1015.43
2016-11-25T00:37:51.779Z,1015.48
2016-11-25T00:39:06.872Z,1015.44
2016-11-25T00:40:20.346Z,1015.34
2016-11-25T00:41:33.734Z,1015.39
2016-11-25T00:42:48.409Z,1015.39
2016-11-25T00:44:03.947Z,1015.36
2016-11-25T00:45:18.515Z,1015.37
2016-11-25T00:46:32.373Z,1015.34
2016-11-25T00:47:46.625Z,1015.28
2016-11-25T00:49:01.532Z,1015.3
2016-11-25T00:50:18.116Z,1015.25
2016-11-25T00:51:32.539Z,1015.25
2016-11-25T00:52:47.443Z,1015.27
2016-11-25T00:54:03.873Z,1015.33
2016-11-25T00:55:15.407Z,1015.34
2016-11-25T00:56:32.053Z,1015.41
2016-11-25T00:57:47.043Z,1015.47
2016-11-25T00:59:03.989Z,1015.55
2016-11-25T01:00:20.060Z,1015.59
2016-11-25T01:01:33.297Z,1015.61
2016-11-25T01:02:47.562Z,1015.58
2016-11-25T01:04:03.448Z,1015.62
2016-11-25T01:05:17.973Z,1015.63
2016-11-25T01:06:31.588Z,1015.61
2016-11-25T01:07:47.317Z,1015.58
2016-11-25T01:08:59.505Z,1015.58
2016-11-25T01:10:12.889Z,1015.53
2016-11-25T01:11:27.651Z,1015.57
2016-11-25T01:12:42.389Z,1015.64
2016-11-25T01:13:57.601Z,1015.69
2016-11-25T01:15:13.335Z,1015.7
2016-11-25T01:16:26.468Z,1015.64
2016-11-25T01:17:41.079Z,1015.59
2016-11-25T01:18:55.079Z,1015.63
2016-11-25T01:20:10.786Z,1015.62
2016-11-25T01:21:22.563Z,1015.69
2016-11-25T01:22:38.358Z,1015.7
2016-11-25T01:23:53.119Z,1015.69
2016-11-25T01:25:07.719Z,1015.69
2016-11-25T01:26:22.959Z,1015.74
2016-11-25T01:27:38.716Z,1015.83
2016-11-25T01:28:53.728Z,1015.85
2016-11-25T01:30:08.544Z,1015.8
2016-11-25T01:31:24.424Z,1015.82
2016-11-25T01:32:38.885Z,1015.83
2016-11-25T01:33:52.285Z,1015.85
2016-11-25T01:35:07.173Z,1015.83
2016-11-25T01:36:23.323Z,1015.78
2016-11-25T01:37:38.344Z,1015.77
2016-11-25T01:38:52.151Z,1015.73
2016-11-25T01:40:07.087Z,1015.73
2016-11-25T01:41:21.736Z,1015.66
2016-11-25T01:42:38.422Z,1015.73
2016-11-25T01:43:52.465Z,1015.71
2016-11-25T01:45:09.045Z,1015.72
2016-11-25T01:46:23.881Z,1015.74
2016-11-25T01:47:39.028Z,1015.73
2016-11-25T01:48:54.144Z,1015.65
2016-11-25T01:50:09.332Z,1015.64
2016-11-25T01:51:23.680Z,1015.56
2016-11-25T01:52:38.908Z,1015.46
2016-11-25T01:53:55.452Z,1015.44
2016-11-25T01:55:09.087Z,1015.46
2016-11-25T01:56:23.814Z,1015.54
2016-11-25T01:57:39.305Z,1015.62
2016-11-25T01:58:55.424Z,1015.56
2016-11-25T02:00:10.259Z,1015.55
2016-11-25T02:01:26.808Z,1015.6
2016-11-25T02:02:43.146Z,1015.58
2016-11-25T02:03:59.475Z,1015.54
2016-11-25T02:05:15.558Z,1015.54
2016-11-25T02:06:30.053Z,1015.6
2016-11-25T02:07:43.382Z,1015.59
2016-11-25T02:08:54.909Z,1015.6
2016-11-25T02:10:10.799Z,1015.55
2016-11-25T02:11:27.142Z,1015.58
2016-11-25T02:12:42.007Z,1015.55
2016-11-25T02:13:56.356Z,1015.56
2016-11-25T02:15:11.137Z,1015.52
2016-11-25T02:16:27.589Z,1015.54
2016-11-25T02:17:42.423Z,1015.57
2016-11-25T02:18:59.375Z,1015.51
2016-11-25T02:20:15.163Z,1015.5
2016-11-25T02:21:30.154Z,1015.46
2016-11-25T02:22:46.054Z,1015.5
2016-11-25T02:24:00.352Z,1015.53
2016-11-25T02:25:13.241Z,1015.5
2016-11-25T02:26:27.540Z,1015.46
2016-11-25T02:27:43.905Z,1015.47
2016-11-25T02:28:58.836Z,1015.4
2016-11-25T02:30:11.923Z,1015.42
2016-11-25T02:31:26.552Z,1015.34
2016-11-25T02:32:41.221Z,1015.35
2016-11-25T02:33:58.091Z,1015.38
2016-11-25T02:35:11.910Z,1015.35
2016-11-25T02:36:26.159Z,1015.37
2016-11-25T02:37:41.100Z,1015.31
2016-11-25T02:38:57.187Z,1015.32
2016-11-25T02:40:14.345Z,1015.39
2016-11-25T02:41:27.398Z,1015.41
2016-11-25T02:42:43.856Z,1015.42
2016-11-25T02:43:59.800Z,1015.45
2016-11-25T02:45:14.944Z,1015.41
2016-11-25T02:46:28.343Z,1015.39
2016-11-25T02:47:44.392Z,1015.43
2016-11-25T02:48:59.330Z,1015.42
2016-11-25T02:50:14.771Z,1015.45
2016-11-25T02:51:28.069Z,1015.47
2016-11-25T02:52:44.882Z,1015.43
2016-11-25T02:53:59.379Z,1015.41
2016-11-25T02:55:14.522Z,1015.41
2016-11-25T02:56:28.314Z,1015.47
2016-11-25T02:57:42.350Z,1015.43
2016-11-25T02:58:57.673Z,1015.44
2016-11-25T03:00:12.511Z,1015.42
2016-11-25T03:01:28.150Z,1015.38
2016-11-25T03:02:41.280Z,1015.34
2016-11-25T03:03:55.975Z,1015.31
2016-11-25T03:05:10.752Z,1015.33
2016-11-25T03:06:25.275Z,1015.34
2016-11-25T03:07:39.935Z,1015.29
2016-11-25T03:08:54.583Z,1015.3
2016-11-25T03:10:09.358Z,1015.34
2016-11-25T03:11:21.658Z,1015.43
2016-11-25T03:12:36.411Z,1015.38
2016-11-25T03:13:52.566Z,1015.39
2016-11-25T03:15:05.395Z,1015.4
2016-11-25T03:16:17.153Z,1015.45
2016-11-25T03:17:30.068Z,1015.45
2016-11-25T03:18:45.722Z,1015.48
2016-11-25T03:20:01.385Z,1015.49
2016-11-25T03:21:14.999Z,1015.47
2016-11-25T03:22:30.904Z,1015.47
2016-11-25T03:23:44.372Z,1015.47
2016-11-25T03:24:58.750Z,1015.5
2016-11-25T03:26:14.735Z,1015.52
2016-11-25T03:27:27.791Z,1015.5
2016-11-25T03:28:44.233Z,1015.44
2016-11-25T03:29:58.682Z,1015.51
2016-11-25T03:31:11.451Z,1015.49
2016-11-25T03:32:26.676Z,1015.44
2016-11-25T03:33:41.654Z,1015.42
2016-11-25T03:34:56.337Z,1015.5
2016-11-25T03:36:13.029Z,1015.52
2016-11-25T03:37:26.249Z,1015.52
2016-11-25T03:38:42.730Z,1015.58
2016-11-25T03:39:57.396Z,1015.6
2016-11-25T03:41:12.477Z,1015.57
2016-11-25T03:42:28.555Z,1015.55
2016-11-25T03:43:44.604Z,1015.55
2016-11-25T03:44:59.100Z,1015.58
2016-11-25T03:46:16.173Z,1015.53
2016-11-25T03:47:31.194Z,1015.54
2016-11-25T03:48:47.528Z,1015.53
2016-11-25T03:50:04.261Z,1015.48
2016-11-25T03:51:18.948Z,1015.49
2016-11-25T03:52:32.300Z,1015.49
2016-11-25T03:53:45.433Z,1015.53
2016-11-25T03:55:01.762Z,1015.51
2016-11-25T03:56:18.774Z,1015.54
2016-11-25T03:57:33.483Z,1015.49
2016-11-25T03:58:46.960Z,1015.54
2016-11-25T04:00:01.554Z,1015.57
2016-11-25T04:01:13.879Z,1015.55
2016-11-25T04:02:28.566Z,1015.57
2016-11-25T04:03:45.055Z,1015.56
2016-11-25T04:04:59.764Z,1015.58
2016-11-25T04:06:13.877Z,1015.57
2016-11-25T04:07:28.436Z,1015.6
2016-11-25T04:08:40.180Z,1015.56
2016-11-25T04:09:56.945Z,1015.58
2016-11-25T04:11:13.272Z,1015.56
2016-11-25T04:12:28.088Z,1015.52
2016-11-25T04:13:42.839Z,1015.53
2016-11-25T04:14:58.476Z,1015.54
2016-11-25T04:16:14.755Z,1015.5
2016-11-25T04:17:30.486Z,1015.43
2016-11-25T04:18:47.267Z,1015.38
2016-11-25T04:20:02.021Z,1015.29
2016-11-25T04:21:13.706Z,1015.29
2016-11-25T04:22:30.044Z,1015.24
2016-11-25T04:23:46.215Z,1015.2
2016-11-25T04:25:01.752Z,1015.19
2016-11-25T04:26:17.748Z,1015.15
2016-11-25T04:27:32.209Z,1015.13
2016-11-25T04:28:48.359Z,1015.18
2016-11-25T04:30:03.487Z,1015.15
2016-11-25T04:31:16.561Z,1015.15
2016-11-25T04:32:33.247Z,1015.21
2016-11-25T04:33:49.680Z,1015.2
2016-11-25T04:35:05.445Z,1015.22
2016-11-25T04:36:17.453Z,1015.18
2016-11-25T04:37:29.470Z,1015.2
2016-11-25T04:38:44.161Z,1015.18
2016-11-25T04:39:54.314Z,1015.16
2016-11-25T04:41:10.444Z,1015.15
2016-11-25T04:42:24.722Z,1015.06
2016-11-25T04:43:39.318Z,1015.04
2016-11-25T04:44:54.216Z,1015.02
2016-11-25T04:46:08.920Z,1015.03
2016-11-25T04:47:25.015Z,1015.01
2016-11-25T04:48:41.043Z,1015.02
2016-11-25T04:49:57.039Z,1015
2016-11-25T04:51:11.982Z,1014.96
2016-11-25T04:52:26.875Z,1015.03
2016-11-25T04:53:41.382Z,1015.05
2016-11-25T04:54:57.718Z,1015.03
2016-11-25T04:56:09.262Z,1015
2016-11-25T04:57:25.876Z,1015.01
2016-11-25T04:58:40.750Z,1014.98
2016-11-25T04:59:55.189Z,1015.01
2016-11-25T05:01:11.540Z,1014.98
2016-11-25T05:02:28.509Z,1014.99
2016-11-25T05:03:43.533Z,1015.02
2016-11-25T05:04:59.446Z,1015.02
2016-11-25T05:06:15.399Z,1015.1
2016-11-25T05:07:31.967Z,1015.09
2016-11-25T05:08:45.821Z,1015.12
2016-11-25T05:09:59.136Z,1015.08
2016-11-25T05:11:14.821Z,1015.18
2016-11-25T05:12:30.078Z,1015.21
2016-11-25T05:13:43.727Z,1015.27
2016-11-25T05:15:00.542Z,1015.22
2016-11-25T05:16:16.601Z,1015.29
2016-11-25T05:17:30.637Z,1015.33
2016-11-25T05:18:47.029Z,1015.26
2016-11-25T05:20:03.374Z,1015.15
2016-11-25T05:21:18.287Z,1015.21
2016-11-25T05:22:31.907Z,1015.28
2016-11-25T05:23:47.170Z,1015.27
2016-11-25T05:25:01.925Z,1015.28
2016-11-25T05:26:18.342Z,1015.32
2016-11-25T05:27:30.526Z,1015.35
2016-11-25T05:28:45.040Z,1015.31
2016-11-25T05:30:01.327Z,1015.27
2016-11-25T05:31:17.783Z,1015.31
2016-11-25T05:32:32.468Z,1015.38
2016-11-25T05:33:47.302Z,1015.3
2016-11-25T05:35:02.378Z,1015.27
2016-11-25T05:36:16.814Z,1015.26
2016-11-25T05:37:32.969Z,1015.23
2016-11-25T05:38:46.621Z,1015.22
2016-11-25T05:40:00.885Z,1015.15
2016-11-25T05:41:17.439Z,1015.15
2016-11-25T05:42:32.212Z,1015.13
2016-11-25T05:43:48.591Z,1015.17
2016-11-25T05:45:04.943Z,1015.15
2016-11-25T05:46:21.366Z,1015.18
2016-11-25T05:47:34.901Z,1015.14
2016-11-25T05:48:51.443Z,1015.16
2016-11-25T05:50:06.920Z,1015.18
2016-11-25T05:51:21.362Z,1015.19
2016-11-25T05:52:35.687Z,1015.14
2016-11-25T05:53:51.604Z,1015.12
2016-11-25T05:55:08.591Z,1015.15
2016-11-25T05:56:23.546Z,1015.13
2016-11-25T05:57:38.664Z,1015.11
2016-11-25T05:58:54.556Z,1015.12
2016-11-25T06:00:09.646Z,1015.08
2016-11-25T06:01:22.823Z,1015.08
2016-11-25T06:02:39.551Z,1015.13
2016-11-25T06:03:54.845Z,1015.11
2016-11-25T06:05:09.169Z,1015.08
2016-11-25T06:06:24.347Z,1015.05
2016-11-25T06:07:40.428Z,1015.03
2016-11-25T06:08:56.839Z,1015.08
2016-11-25T06:10:11.658Z,1015.13
2016-11-25T06:11:27.513Z,1015.1
2016-11-25T06:12:39.599Z,1015.14
2016-11-25T06:13:55.659Z,1015.15
2016-11-25T06:15:10.091Z,1015.11
2016-11-25T06:16:25.014Z,1015.14
2016-11-25T06:17:40.936Z,1015.13
2016-11-25T06:18:55.976Z,1015.14
2016-11-25T06:20:12.024Z,1015.05
2016-11-25T06:21:26.038Z,1015.08
2016-11-25T06:22:36.852Z,1015.06
2016-11-25T06:23:54.254Z,1014.99
2016-11-25T06:25:08.511Z,1014.97
2016-11-25T06:26:21.308Z,1014.98
2016-11-25T06:27:36.951Z,1015.04
2016-11-25T06:28:50.545Z,1015.04
2016-11-25T06:30:02.806Z,1015.06
2016-11-25T06:31:17.515Z,1015.03
2016-11-25T06:32:33.812Z,1015.08
2016-11-25T06:33:48.266Z,1015.06
2016-11-25T06:35:02.248Z,1015.11
2016-11-25T06:36:15.748Z,1015.14
2016-11-25T06:37:30.356Z,1015.1
2016-11-25T06:38:46.709Z,1015.1
2016-11-25T06:39:59.923Z,1015.12
2016-11-25T06:41:16.357Z,1015.19
2016-11-25T06:42:31.716Z,1015.11
2016-11-25T06:43:46.595Z,1015.16
2016-11-25T06:45:01.674Z,1015.17
2016-11-25T06:46:16.523Z,1015.18
2016-11-25T06:47:31.409Z,1015.17
2016-11-25T06:48:46.067Z,1015.19
2016-11-25T06:49:59.960Z,1015.15
2016-11-25T06:51:15.338Z,1015.2
2016-11-25T06:52:28.577Z,1015.26
2016-11-25T06:53:45.843Z,1015.17
2016-11-25T06:55:00.672Z,1015.26
2016-11-25T06:56:17.217Z,1015.3
2016-11-25T06:57:30.846Z,1015.34
2016-11-25T06:58:45.859Z,1015.35
2016-11-25T07:00:02.001Z,1015.37
2016-11-25T07:01:17.491Z,1015.4
2016-11-25T07:02:32.752Z,1015.36
2016-11-25T07:03:44.635Z,1015.33
2016-11-25T07:05:01.193Z,1015.33
2016-11-25T07:06:17.262Z,1015.37
2016-11-25T07:07:33.460Z,1015.36
2016-11-25T07:08:48.287Z,1015.32
2016-11-25T07:10:03.173Z,1015.29
2016-11-25T07:11:20.003Z,1015.27
2016-11-25T07:12:36.087Z,1015.23
2016-11-25T07:13:48.002Z,1015.3
2016-11-25T07:15:03.092Z,1015.32
2016-11-25T07:16:19.621Z,1015.33
2016-11-25T07:17:31.886Z,1015.29
2016-11-25T07:18:46.313Z,1015.29
2016-11-25T07:20:00.547Z,1015.27
2016-11-25T07:21:14.938Z,1015.28
2016-11-25T07:22:30.981Z,1015.34
2016-11-25T07:23:45.855Z,1015.33
2016-11-25T07:25:02.593Z,1015.28
2016-11-25T07:26:17.663Z,1015.33
2016-11-25T07:27:33.952Z,1015.34
2016-11-25T07:28:49.693Z,1015.3
2016-11-25T07:30:02.511Z,1015.31
2016-11-25T07:31:15.737Z,1015.34
2016-11-25T07:32:32.106Z,1015.32
2016-11-25T07:33:47.361Z,1015.31
2016-11-25T07:35:03.566Z,1015.3
2016-11-25T07:36:14.304Z,1015.32
2016-11-25T07:37:28.757Z,1015.32
2016-11-25T07:38:42.194Z,1015.33
2016-11-25T07:39:58.393Z,1015.31
2016-11-25T07:41:13.648Z,1015.43
2016-11-25T07:42:28.173Z,1015.41
2016-11-25T07:43:44.058Z,1015.48
2016-11-25T07:44:58.706Z,1015.49
2016-11-25T07:46:13.080Z,1015.46
2016-11-25T07:47:27.918Z,1015.46
2016-11-25T07:48:43.026Z,1015.39
2016-11-25T07:49:57.734Z,1015.35
2016-11-25T07:51:10.719Z,1015.42
2016-11-25T07:52:25.923Z,1015.42
2016-11-25T07:53:39.403Z,1015.4
2016-11-25T07:54:54.200Z,1015.45
2016-11-25T07:56:09.387Z,1015.38
2016-11-25T07:57:25.557Z,1015.41
2016-11-25T07:58:39.523Z,1015.4
2016-11-25T07:59:53.269Z,1015.41
2016-11-25T08:01:06.353Z,1015.41
2016-11-25T08:02:21.523Z,1015.48
2016-11-25T08:03:36.672Z,1015.45
2016-11-25T08:04:50.164Z,1015.43
2016-11-25T08:06:03.621Z,1015.51
2016-11-25T08:07:18.079Z,1015.51
2016-11-25T08:08:32.540Z,1015.54
2016-11-25T08:09:48.923Z,1015.51
2016-11-25T08:11:02.437Z,1015.55
2016-11-25T08:12:18.077Z,1015.59
2016-11-25T08:13:32.725Z,1015.52
2016-11-25T08:14:47.407Z,1015.54
2016-11-25T08:16:03.321Z,1015.59
2016-11-25T08:17:18.340Z,1015.59
2016-11-25T08:18:32.209Z,1015.61
2016-11-25T08:19:46.898Z,1015.6
2016-11-25T08:21:01.768Z,1015.52
2016-11-25T08:22:14.030Z,1015.49
2016-11-25T08:23:29.505Z,1015.46
2016-11-25T08:24:44.344Z,1015.32
2016-11-25T08:26:00.256Z,1015.36
2016-11-25T08:27:13.008Z,1015.37
2016-11-25T08:28:29.098Z,1015.42
2016-11-25T08:29:44.151Z,1015.41
2016-11-25T08:30:58.042Z,1015.41
2016-11-25T08:32:13.159Z,1015.39
2016-11-25T08:33:25.166Z,1015.39
2016-11-25T08:34:39.776Z,1015.43
2016-11-25T08:35:55.201Z,1015.44
2016-11-25T08:37:11.092Z,1015.42
2016-11-25T08:38:24.257Z,1015.42
2016-11-25T08:39:39.945Z,1015.42
2016-11-25T08:40:51.503Z,1015.42
2016-11-25T08:42:08.045Z,1015.39
2016-11-25T08:43:22.969Z,1015.42
2016-11-25T08:44:35.069Z,1015.46
2016-11-25T08:45:48.917Z,1015.41
2016-11-25T08:47:05.089Z,1015.48
2016-11-25T08:48:20.488Z,1015.47
2016-11-25T08:49:35.047Z,1015.48
2016-11-25T08:50:50.156Z,1015.5
2016-11-25T08:52:05.795Z,1015.52
2016-11-25T08:53:22.282Z,1015.5
2016-11-25T08:54:36.963Z,1015.54
2016-11-25T08:55:53.363Z,1015.57
2016-11-25T08:57:12.370Z,1015.58
2016-11-25T08:58:25.647Z,1015.58
2016-11-25T08:59:41.898Z,1015.68
2016-11-25T09:00:57.931Z,1015.66
2016-11-25T09:02:12.736Z,1015.7
2016-11-25T09:03:28.561Z,1015.73
2016-11-25T09:04:44.570Z,1015.72
2016-11-25T09:05:59.582Z,1015.66
2016-11-25T09:07:14.580Z,1015.69
2016-11-25T09:08:26.618Z,1015.69
2016-11-25T09:09:40.609Z,1015.74
2016-11-25T09:10:56.207Z,1015.75
2016-11-25T09:12:11.993Z,1015.77
2016-11-25T09:13:27.946Z,1015.76
2016-11-25T09:14:42.336Z,1015.82
2016-11-25T09:15:58.252Z,1015.79
2016-11-25T09:17:13.549Z,1015.79
2016-11-25T09:18:27.112Z,1015.84
2016-11-25T09:19:41.405Z,1015.91
2016-11-25T09:20:57.961Z,1015.9
2016-11-25T09:22:13.949Z,1015.79
2016-11-25T09:23:28.846Z,1015.79
2016-11-25T09:24:45.937Z,1015.81
2016-11-25T09:26:02.251Z,1015.86
2016-11-25T09:27:19.047Z,1015.88
2016-11-25T09:28:35.609Z,1015.82
2016-11-25T09:29:51.543Z,1015.84
2016-11-25T09:31:06.819Z,1015.86
2016-11-25T09:32:22.967Z,1015.84
2016-11-25T09:33:38.309Z,1015.8
2016-11-25T09:34:53.098Z,1015.78
2016-11-25T09:36:09.726Z,1015.78
2016-11-25T09:37:25.011Z,1015.79
2016-11-25T09:38:39.397Z,1015.79
2016-11-25T09:39:54.589Z,1015.78
2016-11-25T09:41:10.308Z,1015.77
2016-11-25T09:42:25.669Z,1015.79
2016-11-25T09:43:39.239Z,1015.85
2016-11-25T09:44:52.400Z,1015.86
2016-11-25T09:46:06.696Z,1015.82
2016-11-25T09:47:20.658Z,1015.79
2016-11-25T09:48:37.131Z,1015.8
2016-11-25T09:49:53.317Z,1015.79
2016-11-25T09:51:08.025Z,1015.8
2016-11-25T09:52:22.464Z,1015.8
2016-11-25T09:53:37.151Z,1015.79
2016-11-25T09:54:54.064Z,1015.86
2016-11-25T09:56:09.603Z,1015.77
2016-11-25T09:57:26.722Z,1015.74
2016-11-25T09:58:42.026Z,1015.76
2016-11-25T09:59:56.875Z,1015.71
2016-11-25T10:01:13.095Z,1015.77
2016-11-25T10:02:27.535Z,1015.7
2016-11-25T10:03:42.223Z,1015.75
2016-11-25T10:04:58.971Z,1015.76
2016-11-25T10:06:12.561Z,1015.67
2016-11-25T10:07:26.217Z,1015.71
2016-11-25T10:08:40.991Z,1015.69
2016-11-25T10:09:56.915Z,1015.68
2016-11-25T10:11:12.444Z,1015.72
2016-11-25T10:12:28.907Z,1015.7
2016-11-25T10:13:42.596Z,1015.66
2016-11-25T10:14:57.294Z,1015.7
2016-11-25T10:16:12.991Z,1015.71
2016-11-25T10:17:28.974Z,1015.69
2016-11-25T10:18:43.830Z,1015.69
2016-11-25T10:19:58.491Z,1015.61
2016-11-25T10:21:11.890Z,1015.6
2016-11-25T10:22:26.772Z,1015.62
2016-11-25T10:23:41.127Z,1015.65
2016-11-25T10:24:57.472Z,1015.6
2016-11-25T10:26:11.019Z,1015.53
2016-11-25T10:27:27.728Z,1015.53
2016-11-25T10:28:41.005Z,1015.49
2016-11-25T10:29:55.481Z,1015.53
2016-11-25T10:31:08.720Z,1015.5
2016-11-25T10:32:25.155Z,1015.49
2016-11-25T10:33:39.592Z,1015.51
2016-11-25T10:34:54.635Z,1015.44
2016-11-25T10:36:10.314Z,1015.5
2016-11-25T10:37:23.576Z,1015.44
2016-11-25T10:38:38.664Z,1015.45
2016-11-25T10:39:52.628Z,1015.48
2016-11-25T10:41:07.252Z,1015.38
2016-11-25T10:42:22.499Z,1015.38
2016-11-25T10:43:39.116Z,1015.43
2016-11-25T10:44:55.015Z,1015.38
2016-11-25T10:46:08.096Z,1015.36
2016-11-25T10:47:22.804Z,1015.33
2016-11-25T10:48:38.787Z,1015.32
2016-11-25T10:49:54.973Z,1015.36
2016-11-25T10:51:11.294Z,1015.29
2016-11-25T10:52:27.779Z,1015.36
2016-11-25T10:53:41.289Z,1015.31
2016-11-25T10:54:57.992Z,1015.29
2016-11-25T10:56:13.666Z,1015.29
2016-11-25T10:57:29.716Z,1015.31
2016-11-25T10:58:45.320Z,1015.32
2016-11-25T11:00:01.886Z,1015.31
2016-11-25T11:01:18.355Z,1015.29
2016-11-25T11:02:34.409Z,1015.28
2016-11-25T11:03:49.115Z,1015.23
2016-11-25T11:05:04.928Z,1015.2
2016-11-25T11:06:18.543Z,1015.22
2016-11-25T11:07:34.462Z,1015.19
2016-11-25T11:08:51.210Z,1015.19
2016-11-25T11:10:06.014Z,1015.18
2016-11-25T11:11:22.084Z,1015.17
2016-11-25T11:12:38.803Z,1015.21
2016-11-25T11:13:54.522Z,1015.18
2016-11-25T11:15:11.611Z,1015.2
2016-11-25T11:16:24.775Z,1015.12
2016-11-25T11:17:41.313Z,1015.1
2016-11-25T11:18:56.134Z,1015.07
2016-11-25T11:20:12.101Z,1015.11
2016-11-25T11:21:27.795Z,1014.95
2016-11-25T11:22:42.514Z,1015.12
2016-11-25T11:23:58.585Z,1015.07
2016-11-25T11:25:14.902Z,1015.13
2016-11-25T11:26:28.301Z,1015.14
2016-11-25T11:27:42.934Z,1015.07
2016-11-25T11:28:57.459Z,1015.06
2016-11-25T11:30:10.274Z,1015.07
2016-11-25T11:31:26.371Z,1015.11
2016-11-25T11:32:43.282Z,1015.2
2016-11-25T11:33:57.979Z,1015.01
2016-11-25T11:35:12.927Z,1015.13
2016-11-25T11:36:25.729Z,1015.02
2016-11-25T11:37:39.627Z,1015.05
2016-11-25T11:38:56.746Z,1015.01
2016-11-25T11:40:13.473Z,1015.04
2016-11-25T11:41:27.695Z,1015.02
2016-11-25T11:42:43.588Z,1015
2016-11-25T11:43:58.814Z,1014.99
2016-11-25T11:45:12.290Z,1015
2016-11-25T11:46:27.375Z,1014.92
2016-11-25T11:47:43.515Z,1014.98
2016-11-25T11:48:59.408Z,1014.94
2016-11-25T11:50:10.952Z,1014.98
2016-11-25T11:51:27.403Z,1014.96
2016-11-25T11:52:42.192Z,1014.98
2016-11-25T11:53:54.049Z,1015.04
2016-11-25T11:55:10.512Z,1014.92
2016-11-25T11:56:25.157Z,1014.94
2016-11-25T11:57:41.077Z,1014.96
2016-11-25T11:58:55.375Z,1014.95
2016-11-25T12:00:11.705Z,1014.94
2016-11-25T12:01:26.700Z,1014.85
2016-11-25T12:02:41.479Z,1014.88
2016-11-25T12:03:58.364Z,1014.87
2016-11-25T12:05:13.933Z,1014.92
2016-11-25T12:06:30.725Z,1014.87
2016-11-25T12:07:47.417Z,1014.89
2016-11-25T12:09:02.749Z,1014.84
2016-11-25T12:10:17.819Z,1014.79
2016-11-25T12:11:32.680Z,1014.78
2016-11-25T12:12:47.832Z,1014.76
2016-11-25T12:14:04.177Z,1014.78
2016-11-25T12:15:19.442Z,1014.74
2016-11-25T12:16:34.773Z,1014.75
2016-11-25T12:17:49.714Z,1014.8
2016-11-25T12:19:05.759Z,1014.74
2016-11-25T12:20:20.482Z,1014.69
2016-11-25T12:21:33.547Z,1014.71
2016-11-25T12:22:46.890Z,1014.69
2016-11-25T12:24:03.219Z,1014.73
2016-11-25T12:25:17.661Z,1014.76
2016-11-25T12:26:34.524Z,1014.78
2016-11-25T12:27:48.956Z,1014.75
2016-11-25T12:29:05.913Z,1014.67
2016-11-25T12:30:17.910Z,1014.73
2016-11-25T12:31:32.597Z,1014.71
2016-11-25T12:32:49.080Z,1014.68
2016-11-25T12:34:05.811Z,1014.69
2016-11-25T12:35:22.345Z,1014.66
2016-11-25T12:36:35.408Z,1014.62
2016-11-25T12:37:48.797Z,1014.66
2016-11-25T12:39:01.713Z,1014.66
2016-11-25T12:40:18.570Z,1014.65
2016-11-25T12:41:34.357Z,1014.71
2016-11-25T12:42:51.000Z,1014.62
2016-11-25T12:44:07.561Z,1014.68
2016-11-25T12:45:23.823Z,1014.65
2016-11-25T12:46:40.156Z,1014.66
2016-11-25T12:47:54.765Z,1014.67
2016-11-25T12:49:11.752Z,1014.62
2016-11-25T12:50:27.244Z,1014.64
2016-11-25T12:51:42.764Z,1014.7
2016-11-25T12:52:56.011Z,1014.6
2016-11-25T12:54:09.195Z,1014.6
2016-11-25T12:55:21.382Z,1014.6
2016-11-25T12:56:37.284Z,1014.56
2016-11-25T12:57:54.562Z,1014.58
2016-11-25T12:59:11.750Z,1014.57
2016-11-25T13:00:25.776Z,1014.55
2016-11-25T13:01:40.288Z,1014.54
2016-11-25T13:02:55.238Z,1014.55
2016-11-25T13:04:11.387Z,1014.58
2016-11-25T13:05:28.393Z,1014.61
2016-11-25T13:06:41.647Z,1014.59
2016-11-25T13:07:57.953Z,1014.56
2016-11-25T13:09:14.447Z,1014.65
2016-11-25T13:10:27.318Z,1014.55
2016-11-25T13:11:40.472Z,1014.55
2016-11-25T13:12:56.528Z,1014.47
2016-11-25T13:14:10.027Z,1014.49
2016-11-25T13:15:25.556Z,1014.48
2016-11-25T13:16:37.507Z,1014.5
2016-11-25T13:17:53.660Z,1014.47
2016-11-25T13:19:10.279Z,1014.5
2016-11-25T13:20:27.502Z,1014.51
2016-11-25T13:21:40.647Z,1014.56
2016-11-25T13:22:55.480Z,1014.56
2016-11-25T13:24:11.846Z,1014.55
2016-11-25T13:25:26.804Z,1014.51
2016-11-25T13:26:43.135Z,1014.54
2016-11-25T13:27:57.923Z,1014.49
2016-11-25T13:29:13.071Z,1014.5
2016-11-25T13:30:25.059Z,1014.48
2016-11-25T13:31:40.559Z,1014.45
2016-11-25T13:32:56.254Z,1014.55
2016-11-25T13:34:11.243Z,1014.52
2016-11-25T13:35:25.565Z,1014.51
2016-11-25T13:36:39.044Z,1014.51
2016-11-25T13:37:55.775Z,1014.43
2016-11-25T13:39:09.612Z,1014.43
2016-11-25T13:40:25.369Z,1014.41
2016-11-25T13:41:39.990Z,1014.41
2016-11-25T13:42:54.749Z,1014.43
2016-11-25T13:44:09.760Z,1014.39
2016-11-25T13:45:22.507Z,1014.37
2016-11-25T13:46:39.060Z,1014.38
2016-11-25T13:47:53.904Z,1014.43
2016-11-25T13:49:08.847Z,1014.34
2016-11-25T13:50:24.345Z,1014.4
2016-11-25T13:51:41.219Z,1014.38
2016-11-25T13:52:56.507Z,1014.35
2016-11-25T13:54:12.801Z,1014.34
2016-11-25T13:55:27.340Z,1014.39
2016-11-25T13:56:40.420Z,1014.36
2016-11-25T13:57:52.686Z,1014.4
2016-11-25T13:59:06.260Z,1014.35
2016-11-25T14:00:22.061Z,1014.35
2016-11-25T14:01:33.927Z,1014.37
2016-11-25T14:02:49.667Z,1014.4
2016-11-25T14:04:03.204Z,1014.42
2016-11-25T14:05:17.699Z,1014.34
2016-11-25T14:06:33.780Z,1014.34
2016-11-25T14:07:47.112Z,1014.36
2016-11-25T14:09:02.669Z,1014.38
2016-11-25T14:10:17.818Z,1014.36
2016-11-25T14:11:32.585Z,1014.31
2016-11-25T14:12:47.135Z,1014.44
2016-11-25T14:14:03.473Z,1014.33
2016-11-25T14:15:15.232Z,1014.41
2016-11-25T14:16:28.112Z,1014.35
2016-11-25T14:17:42.463Z,1014.34
2016-11-25T14:18:57.378Z,1014.34
2016-11-25T14:20:12.309Z,1014.29
2016-11-25T14:21:25.858Z,1014.26
2016-11-25T14:22:40.687Z,1014.29
2016-11-25T14:23:55.278Z,1014.3
2016-11-25T14:25:09.092Z,1014.18
2016-11-25T14:26:23.948Z,1014.22
2016-11-25T14:27:37.920Z,1014.22
2016-11-25T14:28:51.536Z,1014.22
2016-11-25T14:30:07.978Z,1014.26
2016-11-25T14:31:22.746Z,1014.27
2016-11-25T14:32:39.448Z,1014.27
2016-11-25T14:33:56.306Z,1014.33
2016-11-25T14:35:11.088Z,1014.3
2016-11-25T14:36:27.166Z,1014.34
2016-11-25T14:37:44.131Z,1014.33
2016-11-25T14:39:00.632Z,1014.33
2016-11-25T14:40:14.832Z,1014.33
2016-11-25T14:41:29.172Z,1014.34
2016-11-25T14:42:46.483Z,1014.27
2016-11-25T14:43:59.701Z,1014.32
2016-11-25T14:45:15.192Z,1014.31
2016-11-25T14:46:30.875Z,1014.29
2016-11-25T14:47:47.359Z,1014.28
2016-11-25T14:49:03.218Z,1014.28
2016-11-25T14:50:18.714Z,1014.29
2016-11-25T14:51:32.440Z,1014.28
2016-11-25T14:52:47.313Z,1014.34
2016-11-25T14:54:02.964Z,1014.29
2016-11-25T14:55:19.444Z,1014.28
2016-11-25T14:56:33.481Z,1014.34
2016-11-25T14:57:50.605Z,1014.39
2016-11-25T14:59:07.334Z,1014.39
2016-11-25T15:00:21.617Z,1014.43
2016-11-25T15:01:37.049Z,1014.42
2016-11-25T15:02:52.313Z,1014.47
2016-11-25T15:04:08.383Z,1014.47
2016-11-25T15:05:23.713Z,1014.44
2016-11-25T15:06:38.186Z,1014.46
2016-11-25T15:07:53.841Z,1014.43
2016-11-25T15:09:08.459Z,1014.46
2016-11-25T15:10:23.252Z,1014.42